Time;durP1;ratioP1;P1;durP2;ratioP2;P2;SDS_P1;SDS_P2;PMS_P1;PMS_P2;Temp;Humidity;BMP_temperature;BMP_pressure;BME280_temperature;BME280_humidity;BME280_pressure;Samples;Min_cycle;Max_cycle;Signal;HPM_P1;HPM_P2
2021/03/01 00:00:30;;;;;;;10.93;8.93;;;;;;;2.80;67.78;100557.41;5031034;28;40702;-77
2021/03/01 00:02:57;;;;;;;10.63;7.50;;;;;;;2.81;67.79;100570.47;5013707;28;41046;-77
2021/03/01 00:05:25;;;;;;;11.57;8.57;;;;;;;2.68;68.58;100540.00;5014145;28;41982;-78
2021/03/01 00:07:52;;;;;;;11.50;8.33;;;;;;;2.78;69.30;100559.16;5030374;28;42173;-77
2021/03/01 00:10:20;;;;;;;12.57;8.97;;;;;;;2.81;69.21;100562.63;5013890;28;38878;-77
2021/03/01 00:12:47;;;;;;;14.63;9.20;;;;;;;2.79;70.22;100559.16;5029971;28;42463;-77
2021/03/01 00:15:16;;;;;;;12.20;8.73;;;;;;;2.77;69.02;100567.88;5030514;28;42761;-77
2021/03/01 00:17:44;;;;;;;12.97;8.77;;;;;;;2.80;69.85;100560.88;5030125;28;42713;-78
2021/03/01 00:20:14;;;;;;;11.80;7.97;;;;;;;2.68;69.09;100547.84;5012635;28;39908;-77
2021/03/01 00:22:42;;;;;;;12.40;8.00;;;;;;;2.80;70.33;100549.56;5028310;28;42339;-78
2021/03/01 00:25:11;;;;;;;10.87;7.57;;;;;;;2.80;69.23;100568.75;5029450;28;43583;-77
2021/03/01 00:27:38;;;;;;;10.30;7.43;;;;;;;2.73;69.02;100545.19;5013506;28;41207;-76
2021/03/01 00:30:08;;;;;;;11.57;8.27;;;;;;;2.78;69.25;100561.75;5030532;28;40523;-77
2021/03/01 00:32:36;;;;;;;9.37;7.23;;;;;;;2.80;69.29;100570.47;5046559;28;42422;-78
2021/03/01 00:35:07;;;;;;;9.83;7.60;;;;;;;2.72;68.92;100552.19;5045439;28;42495;-78
2021/03/01 00:37:34;;;;;;;11.70;7.27;;;;;;;2.76;69.15;100568.75;5013296;28;41550;-77
2021/03/01 00:40:03;;;;;;;8.23;6.23;;;;;;;2.75;68.70;100577.47;5031553;28;40711;-78
2021/03/01 00:42:30;;;;;;;11.80;6.90;;;;;;;2.74;68.38;100578.34;5030965;28;42205;-78
2021/03/01 00:44:57;;;;;;;11.43;7.77;;;;;;;2.73;69.29;100573.97;5031289;28;43299;-77
2021/03/01 00:47:24;;;;;;;9.50;7.07;;;;;;;2.65;69.15;100557.44;5029648;28;42161;-77
2021/03/01 00:49:52;;;;;;;10.50;7.77;;;;;;;2.63;69.09;100556.56;5029738;28;39631;-78
2021/03/01 00:52:20;;;;;;;9.00;6.93;;;;;;;2.68;69.41;100571.41;5029253;28;42445;-78
2021/03/01 00:54:47;;;;;;;9.13;6.87;;;;;;;2.70;69.21;100579.25;5030003;28;41714;-78
2021/03/01 00:57:14;;;;;;;10.97;7.23;;;;;;;2.56;69.25;100554.88;5013258;28;41103;-77
2021/03/01 00:59:41;;;;;;;11.60;7.83;;;;;;;2.63;69.35;100577.50;5029742;28;40720;-78
2021/03/01 01:02:11;;;;;;;7.63;6.00;;;;;;;2.63;69.16;100572.28;5012854;28;41670;-77
2021/03/01 01:04:48;;;;;;;10.13;7.60;;;;;;;2.65;69.76;100574.00;5013492;28;41736;-77
2021/03/01 01:07:15;;;;;;;11.87;7.47;;;;;;;2.63;69.46;100567.03;5012990;28;42324;-77
2021/03/01 01:09:44;;;;;;;13.57;8.33;;;;;;;2.63;69.54;100561.81;5031233;28;40019;-78
2021/03/01 01:12:11;;;;;;;9.17;7.00;;;;;;;2.63;69.92;100564.41;5029497;28;41715;-78
2021/03/01 01:14:39;;;;;;;11.13;6.97;;;;;;;2.63;70.49;100564.41;5029480;28;42830;-78
2021/03/01 01:17:06;;;;;;;11.67;8.43;;;;;;;2.59;70.19;100568.81;5029293;28;42130;-77
2021/03/01 01:19:33;;;;;;;11.57;7.90;;;;;;;2.59;69.56;100563.59;5045954;28;40712;-78
2021/03/01 01:22:00;;;;;;;9.40;7.70;;;;;;;2.51;69.33;100553.13;5038039;28;41901;-78
2021/03/01 01:24:28;;;;;;;9.27;6.77;;;;;;;2.52;68.97;100564.47;5030301;28;42399;-78
2021/03/01 01:26:55;;;;;;;11.30;7.53;;;;;;;2.40;68.97;100557.50;5045331;28;42025;-78
2021/03/01 01:29:23;;;;;;;12.37;7.40;;;;;;;2.43;69.03;100565.34;5029486;28;41780;-78
2021/03/01 01:31:50;;;;;;;8.20;6.40;;;;;;;2.41;68.62;100567.09;5045647;28;41666;-77
2021/03/01 01:34:17;;;;;;;9.30;6.70;;;;;;;2.24;68.34;100550.56;5029537;28;42563;-77
2021/03/01 01:36:44;;;;;;;10.83;8.20;;;;;;;2.29;68.90;100551.44;5012576;28;41207;-78
2021/03/01 01:39:11;;;;;;;10.67;7.23;;;;;;;2.29;68.74;100567.13;5029591;28;40021;-77
2021/03/01 01:41:39;;;;;;;9.50;6.80;;;;;;;2.23;68.43;100567.13;5031260;28;41759;-77
2021/03/01 01:44:07;;;;;;;11.33;8.07;;;;;;;2.19;68.29;100562.78;5029481;28;43504;-78
2021/03/01 01:46:34;;;;;;;9.93;7.23;;;;;;;2.02;68.26;100535.78;5024481;28;41076;-78
2021/03/01 01:49:01;;;;;;;9.80;7.57;;;;;;;2.12;68.16;100556.69;5029483;28;39959;-78
2021/03/01 01:51:29;;;;;;;11.37;7.47;;;;;;;2.09;67.97;100558.44;5044957;28;41705;-78
2021/03/01 01:53:56;;;;;;;8.83;7.00;;;;;;;2.06;67.99;100558.44;5029398;28;42869;-78
2021/03/01 01:56:23;;;;;;;9.93;6.80;;;;;;;2.02;68.05;100556.69;5028762;28;41763;-78
2021/03/01 01:58:50;;;;;;;12.80;8.57;;;;;;;1.94;67.86;100550.63;5045754;28;39969;-77
2021/03/01 02:01:19;;;;;;;11.33;6.87;;;;;;;1.90;67.83;100562.81;5012376;28;40664;-77
2021/03/01 02:03:51;;;;;;;10.83;7.07;;;;;;;1.86;67.69;100557.56;5012347;28;41397;-77
2021/03/01 02:06:46;;;;;;;12.83;7.80;;;;;;;1.80;67.88;100554.09;5028904;28;41448;-77
2021/03/01 02:09:22;;;;;;;11.47;7.47;;;;;;;1.75;67.70;100548.00;5016851;28;40322;-77
2021/03/01 02:11:57;;;;;;;11.07;7.53;;;;;;;1.70;67.75;100548.88;5028810;28;41822;-77
2021/03/01 02:14:33;;;;;;;12.23;8.03;;;;;;;1.66;68.37;100548.00;5012915;28;42844;-77
2021/03/01 02:17:01;;;;;;;8.60;6.63;;;;;;;1.63;68.46;100545.38;5028512;28;42226;-77
2021/03/01 02:19:29;;;;;;;12.90;8.13;;;;;;;1.59;68.47;100540.19;5028717;28;39611;-77
2021/03/01 02:21:57;;;;;;;10.17;7.50;;;;;;;1.46;68.40;100522.75;5028353;28;41912;-77
2021/03/01 02:24:30;;;;;;;13.17;8.87;;;;;;;1.50;67.93;100538.41;5047558;28;43462;-77
2021/03/01 02:26:59;;;;;;;9.70;6.77;;;;;;;1.36;68.17;100517.50;5031879;28;42741;-76
2021/03/01 02:29:27;;;;;;;10.10;7.57;;;;;;;1.44;68.21;100530.59;5033496;28;40711;-77
2021/03/01 02:32:01;;;;;;;9.13;7.13;;;;;;;1.40;68.15;100536.66;5015478;28;41079;-76
2021/03/01 02:34:33;;;;;;;9.03;6.13;;;;;;;1.29;67.84;100527.94;5023930;28;42660;-77
2021/03/01 02:37:03;;;;;;;9.10;6.37;;;;;;;1.33;67.85;100542.75;5048439;28;42349;-77
2021/03/01 02:39:35;;;;;;;8.80;6.33;;;;;;;1.28;67.86;100537.50;5033129;28;39572;-77
2021/03/01 02:42:05;;;;;;;10.33;6.67;;;;;;;1.19;67.79;100523.59;5048042;28;41714;-77
2021/03/01 02:44:33;;;;;;;9.13;6.57;;;;;;;1.20;67.84;100531.41;5032174;28;42646;-77
2021/03/01 02:47:00;;;;;;;10.73;7.50;;;;;;;1.17;68.20;100535.75;5031125;28;42953;-77
2021/03/01 02:49:29;;;;;;;8.40;6.43;;;;;;;1.15;67.94;100537.47;5032935;28;39895;-76
2021/03/01 02:51:57;;;;;;;10.17;7.00;;;;;;;1.12;68.14;100537.47;5031041;28;42544;-77
2021/03/01 02:54:26;;;;;;;11.07;6.73;;;;;;;1.05;68.19;100540.06;5030438;28;41808;-77
2021/03/01 02:56:55;;;;;;;9.40;6.47;;;;;;;0.89;68.17;100517.41;5014885;28;42673;-78
2021/03/01 02:59:24;;;;;;;10.37;7.00;;;;;;;1.00;68.29;100539.19;5015306;28;41949;-77
2021/03/01 03:01:53;;;;;;;13.83;8.17;;;;;;;0.81;68.32;100511.31;5031088;28;41696;-77
2021/03/01 03:04:22;;;;;;;10.90;7.40;;;;;;;0.94;68.27;100544.38;5047938;28;42653;-77
2021/03/01 03:06:50;;;;;;;11.40;9.00;;;;;;;0.92;68.35;100530.47;5031185;28;42945;-78
2021/03/01 03:09:18;;;;;;;13.17;8.77;;;;;;;0.88;68.42;100536.53;5031656;28;41271;-77
2021/03/01 03:11:47;;;;;;;15.10;10.00;;;;;;;0.86;68.79;100524.38;5031407;28;41028;-77
2021/03/01 03:14:19;;;;;;;17.17;11.20;;;;;;;0.82;69.20;100523.47;5031138;28;42688;-78
2021/03/01 03:16:48;;;;;;;18.00;12.47;;;;;;;0.66;69.78;100493.00;5031087;28;42351;-77
2021/03/01 03:19:15;;;;;;;19.70;12.20;;;;;;;0.79;70.53;100517.38;5032570;28;40787;-77
2021/03/01 03:21:43;;;;;;;17.30;10.80;;;;;;;0.65;70.15;100504.28;5031328;28;41353;-77
2021/03/01 03:24:11;;;;;;;19.80;12.37;;;;;;;0.74;70.47;100516.50;5032390;28;42677;-77
2021/03/01 03:26:38;;;;;;;17.87;11.13;;;;;;;0.71;70.15;100518.22;5031350;28;41168;-77
2021/03/01 03:29:06;;;;;;;19.63;10.77;;;;;;;0.69;70.54;100516.47;5015173;28;40327;-77
2021/03/01 03:31:33;;;;;;;15.93;10.50;;;;;;;0.70;70.37;100521.69;5030275;28;41494;-77
2021/03/01 03:34:00;;;;;;;14.57;10.47;;;;;;;0.70;71.25;100521.69;5031223;28;41713;-77
2021/03/01 03:36:30;;;;;;;16.63;9.97;;;;;;;0.73;73.04;100518.25;5028840;28;43150;-76
2021/03/01 03:38:59;;;;;;;14.23;9.23;;;;;;;0.75;71.88;100526.03;5030182;28;40048;-77
2021/03/01 03:41:28;;;;;;;17.13;10.67;;;;;;;0.69;73.33;100508.66;5030067;28;41877;-77
2021/03/01 03:43:57;;;;;;;18.33;10.40;;;;;;;0.76;72.40;100528.66;5030879;28;43139;-77
2021/03/01 03:46:28;;;;;;;17.03;10.47;;;;;;;0.75;71.96;100526.91;5030330;28;41900;-76
2021/03/01 03:48:56;;;;;;;14.63;9.50;;;;;;;0.71;71.54;100519.97;5032284;28;40796;-76
2021/03/01 03:51:27;;;;;;;12.63;7.83;;;;;;;0.73;71.36;100533.88;5030711;28;40776;-77
2021/03/01 03:54:07;;;;;;;14.73;8.60;;;;;;;0.72;71.40;100537.34;5014073;28;42625;-77
2021/03/01 03:56:38;;;;;;;12.77;8.60;;;;;;;0.71;71.18;100540.81;5031603;28;42981;-78
2021/03/01 03:59:09;;;;;;;13.43;8.47;;;;;;;0.70;71.10;100544.28;5031616;28;40317;-78
2021/03/01 04:01:39;;;;;;;11.77;7.67;;;;;;;0.68;72.09;100538.19;5030359;28;42717;-77
2021/03/01 04:04:08;;;;;;;14.33;8.60;;;;;;;0.66;71.44;100542.53;5014249;28;41801;-77
2021/03/01 04:06:37;;;;;;;12.83;7.93;;;;;;;0.66;71.30;100545.13;5029926;28;43052;-77
2021/03/01 04:09:07;;;;;;;11.77;8.97;;;;;;;0.65;71.96;100540.78;5030722;28;39903;-78
2021/03/01 04:11:34;;;;;;;12.63;8.33;;;;;;;0.58;71.63;100534.69;5030210;28;41512;-78
2021/03/01 04:14:03;;;;;;;14.97;8.80;;;;;;;0.65;72.51;100548.59;5030435;28;42726;-77
2021/03/01 04:16:31;;;;;;;12.60;8.33;;;;;;;0.65;72.52;100556.44;5029692;28;42065;-78
2021/03/01 04:19:03;;;;;;;15.73;9.30;;;;;;;0.63;73.00;100553.81;5029768;28;40420;-76
2021/03/01 04:21:32;;;;;;;16.90;10.33;;;;;;;0.68;73.93;100556.44;5028096;28;42287;-79
2021/03/01 04:24:02;;;;;;;15.77;10.33;;;;;;;0.70;74.27;100557.34;5030134;28;42823;-77
2021/03/01 04:26:29;;;;;;;17.20;10.63;;;;;;;0.69;74.08;100555.59;5029761;28;42168;-78
2021/03/01 04:28:57;;;;;;;14.30;9.47;;;;;;;0.69;73.37;100563.41;5029865;28;40995;-77
2021/03/01 04:31:27;;;;;;;15.80;9.70;;;;;;;0.67;73.63;100568.63;5030713;28;42351;-77
2021/03/01 04:33:55;;;;;;;15.37;9.67;;;;;;;0.65;73.76;100572.06;5013547;28;41959;-77
2021/03/01 04:36:24;;;;;;;14.90;9.57;;;;;;;0.63;73.21;100569.44;5029976;28;43066;-79
2021/03/01 04:38:52;;;;;;;15.87;10.13;;;;;;;0.63;73.08;100558.16;5028990;28;39736;-77
2021/03/01 04:41:20;;;;;;;15.00;10.10;;;;;;;0.54;73.00;100552.91;5030612;28;42271;-77
2021/03/01 04:43:49;;;;;;;16.00;9.70;;;;;;;0.53;73.78;100551.16;5041814;28;43315;-77
2021/03/01 04:46:17;;;;;;;15.50;9.67;;;;;;;0.57;73.33;100564.22;5019932;28;41470;-77
2021/03/01 04:48:45;;;;;;;15.70;9.43;;;;;;;0.49;73.73;100539.88;5030961;28;40897;-77
2021/03/01 04:51:13;;;;;;;12.77;9.10;;;;;;;0.57;73.62;100560.75;5030434;28;42190;-77
2021/03/01 04:53:41;;;;;;;17.97;11.37;;;;;;;0.34;73.23;100530.22;5043471;28;42654;-77
2021/03/01 04:56:10;;;;;;;14.30;9.87;;;;;;;0.38;73.15;100538.03;5031061;28;42297;-77
2021/03/01 04:58:38;;;;;;;15.13;9.20;;;;;;;0.51;72.79;100569.38;5029410;28;40620;-77
2021/03/01 05:01:07;;;;;;;14.37;9.70;;;;;;;0.48;72.89;100564.19;5012523;28;41861;-77
2021/03/01 05:03:34;;;;;;;16.80;9.93;;;;;;;0.37;72.65;100550.22;5029852;28;42663;-78
2021/03/01 05:06:02;;;;;;;14.70;9.37;;;;;;;0.27;72.26;100537.97;5012806;28;41390;-77
2021/03/01 05:08:30;;;;;;;12.07;7.73;;;;;;;0.38;72.22;100564.09;5029137;28;38796;-78
2021/03/01 05:10:58;;;;;;;19.97;11.67;;;;;;;0.17;72.20;100529.25;5029088;28;40796;-77
2021/03/01 05:13:25;;;;;;;15.23;9.50;;;;;;;0.32;72.20;100557.13;5012714;28;41762;-77
2021/03/01 05:15:52;;;;;;;13.17;8.43;;;;;;;0.28;72.04;100555.34;5032326;28;41226;-77
2021/03/01 05:18:19;;;;;;;13.37;9.17;;;;;;;0.20;72.03;100555.31;5030179;28;40422;-77
2021/03/01 05:20:46;;;;;;;13.00;8.73;;;;;;;0.26;72.43;100562.28;5029072;28;41596;-77
2021/03/01 05:23:13;;;;;;;13.40;8.50;;;;;;;0.23;72.26;100565.78;5030479;28;42831;-77
2021/03/01 05:25:40;;;;;;;19.33;11.37;;;;;;;0.19;72.07;100566.59;5028669;28;41302;-77
2021/03/01 05:28:08;;;;;;;15.63;10.23;;;;;;;0.11;72.09;100547.47;5045338;28;40019;-77
2021/03/01 05:30:35;;;;;;;13.07;8.70;;;;;;;0.16;71.84;100557.88;5030492;28;41264;-76
2021/03/01 05:33:03;;;;;;;12.27;8.03;;;;;;;0.16;72.02;100563.97;5028702;28;41969;-77
2021/03/01 05:35:30;;;;;;;14.63;9.00;;;;;;;0.17;72.00;100567.44;5029924;28;42608;-77
2021/03/01 05:37:58;;;;;;;18.30;10.37;;;;;;;0.05;72.39;100542.19;5012187;28;40184;-77
2021/03/01 05:40:25;;;;;;;15.43;9.43;;;;;;;0.19;73.61;100550.97;5028848;28;42231;-77
2021/03/01 05:42:56;;;;;;;17.00;10.53;;;;;;;0.10;73.20;100534.41;5012160;28;41675;-77
2021/03/01 05:45:24;;;;;;;16.47;10.33;;;;;;;0.22;73.02;100557.94;5044756;28;42637;-77
2021/03/01 05:47:52;;;;;;;15.90;10.53;;;;;;;0.21;72.80;100559.66;5045173;28;39990;-77
2021/03/01 05:50:19;;;;;;;17.37;11.57;;;;;;;0.21;72.64;100559.66;5029004;28;42036;-77
2021/03/01 05:52:54;;;;;;;16.90;10.13;;;;;;;0.12;72.56;100544.00;5028398;28;42670;-77
2021/03/01 05:55:21;;;;;;;18.77;13.10;;;;;;;0.16;72.70;100556.16;5012421;28;41269;-77
2021/03/01 05:57:49;;;;;;;18.60;11.47;;;;;;;0.19;72.78;100560.50;5029735;28;39959;-77
2021/03/01 06:00:16;;;;;;;15.23;10.50;;;;;;;0.20;72.86;100562.25;5032978;28;42440;-77
2021/03/01 06:03:02;;;;;;;16.50;11.00;;;;;;;0.22;72.95;100566.63;5031204;28;42672;-77
2021/03/01 06:05:30;;;;;;;19.13;11.63;;;;;;;0.22;73.39;100561.41;5032014;28;42883;-77
2021/03/01 06:07:57;;;;;;;17.17;10.90;;;;;;;0.22;72.95;100555.34;5015376;28;38883;-78
2021/03/01 06:10:25;;;;;;;17.73;11.10;;;;;;;0.20;72.77;100562.25;5056812;28;41697;-76
2021/03/01 06:12:52;;;;;;;14.07;10.67;;;;;;;0.21;72.57;100566.63;5067368;28;43927;-77
2021/03/01 06:15:20;;;;;;;15.90;9.63;;;;;;;0.22;72.69;100565.75;5051944;28;42135;-77
2021/03/01 06:18:07;;;;;;;16.30;10.77;;;;;;;0.25;73.08;100565.75;5051995;28;40256;-77
2021/03/01 06:20:35;;;;;;;15.47;9.47;;;;;;;0.18;73.61;100546.63;5050047;28;43036;-76
2021/03/01 06:23:02;;;;;;;18.90;13.83;;;;;;;0.31;73.08;100566.69;5047523;28;42790;-76
2021/03/01 06:25:30;;;;;;;20.17;13.20;;;;;;;0.31;72.76;100566.69;5031528;28;41592;-76
2021/03/01 06:27:59;;;;;;;18.27;11.53;;;;;;;0.37;72.58;100585.84;5032008;28;40375;-77
2021/03/01 06:30:29;;;;;;;17.07;11.37;;;;;;;0.38;72.45;100584.94;5031969;28;41106;-77
2021/03/01 06:33:08;;;;;;;16.10;11.10;;;;;;;0.40;72.27;100599.72;5031305;28;42385;-76
2021/03/01 06:35:38;;;;;;;15.27;10.13;;;;;;;0.42;72.32;100594.53;5031643;28;42426;-78
2021/03/01 06:38:27;;;;;;;19.83;12.87;;;;;;;0.42;72.43;100589.31;5014772;28;39184;-77
2021/03/01 06:41:15;;;;;;;19.37;12.40;;;;;;;0.47;72.25;100595.44;5032692;28;41827;-76
2021/03/01 06:43:54;;;;;;;19.73;11.63;;;;;;;0.52;72.01;100604.16;5031463;28;42504;-76
2021/03/01 06:46:22;;;;;;;16.90;10.17;;;;;;;0.54;71.87;100595.47;5031468;28;41926;-76
2021/03/01 06:48:50;;;;;;;17.37;10.60;;;;;;;0.59;71.68;100595.53;5031613;28;40236;-77
2021/03/01 06:51:17;;;;;;;16.47;10.43;;;;;;;0.56;71.63;100585.06;5031062;28;40991;-77
2021/03/01 06:53:45;;;;;;;14.27;9.27;;;;;;;0.68;71.58;100598.16;5030591;28;42311;-77
2021/03/01 06:56:14;;;;;;;13.47;10.00;;;;;;;0.43;71.34;100549.38;5044625;28;42102;-77
2021/03/01 06:58:43;;;;;;;15.70;10.53;;;;;;;0.62;71.18;100572.03;5026535;28;39372;-76
2021/03/01 07:01:13;;;;;;;18.07;11.57;;;;;;;0.83;71.24;100592.16;5027464;28;40775;-78
2021/03/01 07:03:41;;;;;;;18.60;12.80;;;;;;;0.87;71.49;100592.16;5028226;28;43076;-76
2021/03/01 07:06:10;;;;;;;20.07;13.23;;;;;;;0.97;71.15;100607.00;5041917;28;42362;-78
2021/03/01 07:08:40;;;;;;;18.07;11.37;;;;;;;1.05;71.17;100613.13;5029948;28;39896;-78
2021/03/01 07:11:24;;;;;;;17.97;12.33;;;;;;;1.08;71.33;100594.88;5030671;28;41549;-79
2021/03/01 07:13:52;;;;;;;18.60;11.47;;;;;;;1.23;71.00;100609.72;5015514;28;41951;-79
2021/03/01 07:16:20;;;;;;;15.03;10.07;;;;;;;1.23;70.91;100586.22;5030646;28;41127;-80
2021/03/01 07:18:48;;;;;;;15.73;10.10;;;;;;;1.61;70.43;100598.47;5015138;28;39913;-81
2021/03/01 07:21:16;;;;;;;18.63;11.70;;;;;;;2.10;69.77;100618.53;5047292;28;41888;-78
2021/03/01 07:23:44;;;;;;;17.40;11.07;;;;;;;2.28;69.62;100612.44;5031595;28;41934;-80
2021/03/01 07:26:15;;;;;;;18.77;12.20;;;;;;;2.32;69.27;100592.41;5032817;28;42348;-80
2021/03/01 07:28:43;;;;;;;17.47;11.70;;;;;;;2.47;69.36;100614.13;5015284;28;39128;-81
2021/03/01 07:31:14;;;;;;;15.53;11.13;;;;;;;2.47;69.30;100619.38;5010895;28;41069;-78
2021/03/01 07:33:42;;;;;;;16.43;11.23;;;;;;;2.46;69.28;100622.88;5033156;28;42674;-80
2021/03/01 07:36:10;;;;;;;16.60;10.83;;;;;;;2.43;69.36;100615.03;5030720;28;43167;-80
2021/03/01 07:38:39;;;;;;;21.03;12.87;;;;;;;2.50;69.61;100619.38;5031229;28;39183;-80
2021/03/01 07:41:07;;;;;;;16.27;10.67;;;;;;;2.49;69.37;100604.56;5034388;28;41494;-80
2021/03/01 07:43:36;;;;;;;16.30;11.07;;;;;;;2.74;69.57;100622.81;5031818;28;42533;-80
2021/03/01 07:46:04;;;;;;;23.90;13.60;;;;;;;2.91;69.55;100626.25;5046548;28;43250;-79
2021/03/01 07:48:36;;;;;;;17.33;11.33;;;;;;;3.29;69.90;100613.03;5031265;28;39372;-79
2021/03/01 07:51:05;;;;;;;23.50;13.40;;;;;;;3.94;69.85;100583.78;5030537;28;41199;-80
2021/03/01 07:53:52;;;;;;;23.00;14.37;;;;;;;4.89;67.78;100598.56;5029991;28;43153;-80
2021/03/01 07:56:48;;;;;;;39.87;27.67;;;;;;;4.76;67.44;100578.59;5042192;28;41682;-80
2021/03/01 07:59:24;;;;;;;31.50;18.70;;;;;;;4.77;68.30;100606.59;4998098;28;39943;-78
2021/03/01 08:02:12;;;;;;;24.07;15.57;;;;;;;4.80;68.67;100614.44;5013368;28;42359;-81
2021/03/01 08:04:40;;;;;;;20.83;14.67;;;;;;;5.06;68.33;100604.50;5013995;28;42835;-80
2021/03/01 08:07:17;;;;;;;20.90;14.10;;;;;;;6.03;67.14;100621.56;5012256;28;42827;-83
2021/03/01 08:10:04;;;;;;;23.90;14.70;;;;;;;6.29;65.29;100575.53;5013176;28;41970;-83
2021/03/01 08:13:11;;;;;;;23.90;14.27;;;;;;;7.14;62.02;100585.28;5013775;28;42190;-81
2021/03/01 08:16:04;;;;;;;21.20;14.47;;;;;;;7.69;61.42;100635.91;5013321;28;43023;-84
2021/03/01 08:18:54;;;;;;;23.47;15.30;;;;;;;10.57;53.60;100636.63;5027208;28;43041;-79
2021/03/01 08:21:22;;;;;;;20.73;15.33;;;;;;;13.53;48.27;100671.72;5025140;28;40597;-81
2021/03/01 08:23:52;;;;;;;17.30;14.93;;;;;;;16.40;42.66;100669.31;5026046;28;41609;-83
2021/03/01 08:26:47;;;;;;;16.83;14.10;;;;;;;18.66;38.02;100691.88;5009299;28;43436;-81
2021/03/01 08:29:41;;;;;;;16.30;14.33;;;;;;;21.25;33.30;100694.69;5008347;28;41655;-83
2021/03/01 08:32:13;;;;;;;15.23;13.73;;;;;;;23.92;28.32;100725.50;4983138;28;39807;-84
2021/03/01 08:34:43;;;;;;;16.20;13.73;;;;;;;25.64;25.60;100772.88;5029391;28;41441;-81
2021/03/01 08:37:10;;;;;;;17.37;15.47;;;;;;;25.82;24.60;100732.28;5045197;28;42186;-81
2021/03/01 08:39:59;;;;;;;17.40;15.47;;;;;;;25.47;24.63;100737.50;5013548;28;42042;-81
2021/03/01 08:42:55;;;;;;;16.60;15.00;;;;;;;24.67;24.60;100723.19;5010677;28;39796;-82
2021/03/01 08:45:36;;;;;;;17.73;15.93;;;;;;;23.65;26.95;100726.09;5039445;28;41979;-81
2021/03/01 08:48:20;;;;;;;17.70;15.70;;;;;;;24.80;25.11;100752.75;5028779;28;41970;-83
2021/03/01 08:50:49;;;;;;;16.47;14.93;;;;;;;26.70;23.63;100767.06;5012909;28;42928;-80
2021/03/01 08:53:25;;;;;;;17.40;15.80;;;;;;;27.94;21.08;100733.44;5045812;28;40036;-83
2021/03/01 08:55:53;;;;;;;16.03;14.53;;;;;;;28.94;20.72;100785.31;5013695;28;44730;-83
2021/03/01 08:58:22;;;;;;;15.83;14.43;;;;;;;28.92;20.17;100781.91;5013163;28;42267;-83
2021/03/01 09:00:52;;;;;;;15.80;14.20;;;;;;;29.53;20.09;100775.16;5004353;28;42714;-80
2021/03/01 09:03:25;;;;;;;16.97;15.37;;;;;;;29.91;18.66;100789.13;5025072;28;41051;-83
2021/03/01 09:06:14;;;;;;;14.97;13.67;;;;;;;28.71;19.06;100734.25;5027823;28;40956;-86
2021/03/01 09:08:47;;;;;;;16.67;15.07;;;;;;;26.40;21.12;100707.59;5012995;28;44354;-80
2021/03/01 09:11:37;;;;;;;17.13;14.77;;;;;;;23.35;24.09;100696.28;4980221;28;42704;-83
2021/03/01 09:16:55;;;;;;;18.03;16.13;;;;;;;21.98;26.84;100691.53;4991069;28;40801;-85
2021/03/01 09:19:23;;;;;;;20.23;15.80;;;;;;;23.04;25.89;100717.81;4992365;28;44577;-84
2021/03/01 09:21:55;;;;;;;18.03;14.50;;;;;;;24.72;24.20;100740.91;4991587;28;41499;-83
2021/03/01 09:24:34;;;;;;;18.17;15.17;;;;;;;23.68;24.47;100731.22;5001751;28;41708;-84
2021/03/01 09:27:02;;;;;;;15.97;14.13;;;;;;;22.12;27.25;100705.66;5029487;28;42137;-82
2021/03/01 09:29:35;;;;;;;17.57;15.53;;;;;;;22.17;27.04;100702.59;5031528;28;44052;-83
2021/03/01 09:32:02;;;;;;;19.30;16.17;;;;;;;22.87;26.15;100731.91;5048406;28;41466;-80
2021/03/01 09:34:31;;;;;;;25.97;23.17;;;;;;;22.87;26.63;100719.22;5052548;28;39900;-81
2021/03/01 09:36:58;;;;;;;19.17;15.20;;;;;;;24.11;24.70;100665.19;5051646;28;43049;-80
2021/03/01 09:39:29;;;;;;;15.17;13.67;;;;;;;26.04;23.59;100736.47;5052551;28;43276;-84
2021/03/01 09:42:30;;;;;;;;;;;;;;;;;;;;;
2021/03/01 09:45:45;;;;;;;14.70;13.33;;;;;;;28.86;20.72;100749.84;5067349;28;41033;-84
2021/03/01 09:52:03;;;;;;;17.80;16.10;;;;;;;25.23;22.92;100743.34;4917322;29;43874;-85
2021/03/01 09:54:35;;;;;;;16.97;15.37;;;;;;;23.46;25.43;100718.69;4915194;29;41882;-88
2021/03/01 09:57:36;;;;;;;20.67;16.90;;;;;;;22.16;26.84;100679.28;4913441;29;41747;-83
2021/03/01 10:00:46;;;;;;;17.13;15.30;;;;;;;21.92;27.84;100679.38;4927088;28;41343;-83
2021/03/01 10:03:36;;;;;;;15.17;13.50;;;;;;;22.12;27.96;100691.31;4895851;29;43274;-85
2021/03/01 10:06:05;;;;;;;18.83;15.60;;;;;;;23.19;27.09;100689.47;4911278;29;41583;-83
2021/03/01 10:08:36;;;;;;;16.67;14.93;;;;;;;24.30;24.85;100654.41;4882022;29;38914;-86
2021/03/01 10:11:04;;;;;;;16.97;15.17;;;;;;;24.67;23.82;100734.03;4938137;28;42310;-85
2021/03/01 10:13:35;;;;;;;16.50;14.33;;;;;;;25.04;22.81;100695.41;4936118;28;41932;-85
2021/03/01 10:16:05;;;;;;;15.73;14.13;;;;;;;25.00;23.21;100721.09;4904281;28;42020;-83
2021/03/01 10:18:35;;;;;;;17.73;15.00;;;;;;;23.83;24.13;100705.53;4937845;28;39464;-85
2021/03/01 10:21:05;;;;;;;15.23;13.73;;;;;;;23.95;24.31;100677.38;4974916;28;41826;-85
2021/03/01 10:23:41;;;;;;;17.43;15.53;;;;;;;24.45;24.19;100709.03;5022820;28;41803;-83
2021/03/01 10:26:17;;;;;;;16.10;14.50;;;;;;;25.51;23.31;100703.63;5034640;28;41227;-84
2021/03/01 10:29:02;;;;;;;16.33;14.63;;;;;;;27.27;21.45;100731.41;5035616;28;38958;-85
2021/03/01 10:31:33;;;;;;;16.57;14.97;;;;;;;28.71;20.12;100729.66;5033475;28;42217;-87
2021/03/01 10:34:04;;;;;;;16.57;14.87;;;;;;;29.58;19.12;100725.47;5035224;28;41466;-83
2021/03/01 10:36:33;;;;;;;15.87;14.30;;;;;;;30.30;18.29;100751.78;5050770;28;42771;-83
2021/03/01 10:39:05;;;;;;;17.10;15.40;;;;;;;30.99;17.31;100741.00;5068013;28;40700;-84
2021/03/01 10:41:34;;;;;;;16.50;14.90;;;;;;;31.31;16.99;100723.47;5031976;28;41621;-85
2021/03/01 10:44:05;;;;;;;15.90;14.30;;;;;;;32.45;16.44;100756.03;5049798;28;41809;-83
2021/03/01 10:46:35;;;;;;;15.57;13.93;;;;;;;32.54;16.04;100743.03;5050280;28;42218;-82
2021/03/01 10:49:14;;;;;;;14.33;12.93;;;;;;;32.31;15.75;100741.28;5034938;28;42384;-79
2021/03/01 10:51:42;;;;;;;15.87;14.33;;;;;;;31.77;16.61;100718.78;5034485;28;41336;-84
2021/03/01 10:54:10;;;;;;;14.70;13.40;;;;;;;31.98;17.33;100726.25;5034797;28;42641;-85
2021/03/01 10:56:37;;;;;;;15.03;13.53;;;;;;;32.23;16.25;100722.22;5050428;28;42540;-83
2021/03/01 10:59:04;;;;;;;16.47;14.87;;;;;;;33.07;15.52;100748.13;5067837;28;39825;-81
2021/03/01 11:01:33;;;;;;;16.43;14.87;;;;;;;33.91;14.91;100714.38;5033589;28;41234;-82
2021/03/01 11:04:00;;;;;;;17.30;15.60;;;;;;;35.08;14.47;100749.00;5035232;28;41435;-79
2021/03/01 11:06:29;;;;;;;15.60;14.15;;;;;;;36.06;13.36;100743.69;5035976;28;41394;-82
2021/03/01 11:08:56;;;;;;;14.80;13.40;;;;;;;36.87;12.96;100730.22;5050870;28;41573;-84
2021/03/01 11:11:23;;;;;;;14.80;13.48;;;;;;;37.45;12.13;100744.72;5049689;28;41861;-85
2021/03/01 11:13:51;;;;;;;14.82;13.35;;;;;;;37.71;12.81;100738.13;5034915;28;41879;-84
2021/03/01 11:16:18;;;;;;;13.88;12.68;;;;;;;38.61;11.71;100738.38;5066874;28;42114;-86
2021/03/01 11:18:45;;;;;;;15.18;13.63;;;;;;;39.53;11.51;100741.72;5050678;28;39975;-82
2021/03/01 11:21:12;;;;;;;13.68;12.57;;;;;;;40.19;11.10;100733.00;5048757;28;41148;-84
2021/03/01 11:23:41;;;;;;;13.63;12.43;;;;;;;40.00;10.83;100721.22;5034234;28;42697;-79
2021/03/01 11:26:08;;;;;;;13.10;11.80;;;;;;;39.13;11.17;100703.53;5034410;28;41354;-89
2021/03/01 11:28:36;;;;;;;13.45;12.25;;;;;;;39.41;10.91;100717.59;5050696;28;39744;-87
2021/03/01 11:31:04;;;;;;;12.55;11.55;;;;;;;39.75;11.18;100709.53;5033608;28;41637;-82
2021/03/01 11:33:31;;;;;;;13.93;12.65;;;;;;;39.81;11.19;100686.38;5030836;28;42063;-82
2021/03/01 11:35:58;;;;;;;11.60;10.60;;;;;;;40.26;10.88;100697.63;5049672;28;41809;-85
2021/03/01 11:38:25;;;;;;;12.80;11.70;;;;;;;40.45;10.19;100684.41;5051029;28;41270;-83
2021/03/01 11:40:53;;;;;;;13.90;12.60;;;;;;;40.30;10.48;100675.81;5050716;28;41733;-82
2021/03/01 11:43:21;;;;;;;13.40;12.20;;;;;;;39.27;10.53;100644.03;5050075;28;41809;-84